Time;durP1;ratioP1;P1;durP2;ratioP2;P2;SDS_P1;SDS_P2;PMS_P1;PMS_P2;Temp;Humidity;BMP_temperature;BMP_pressure;BME280_temperature;BME280_humidity;BME280_pressure;Samples;Min_cycle;Max_cycle;Signal;HPM_P1;HPM_P2
2022/08/06 00:00:14;;;;;;;9.50;5.43;;;;;;;;;;5008155;28;20050;-77
2022/08/06 00:02:40;;;;;;;11.52;5.82;;;;;;;;;;5008140;28;20073;-77
2022/08/06 00:05:08;;;;;;;8.55;5.72;;;;;;;;;;5008945;28;20115;-76
2022/08/06 00:07:34;;;;;;;10.85;5.85;;;;;;;;;;5008732;28;20609;-76
2022/08/06 00:10:15;;;;;;;11.93;6.00;;;;;;;;;;5008737;28;20046;-77
2022/08/06 00:12:42;;;;;;;7.45;5.68;;;;;;;;;;5007982;28;20636;-77
2022/08/06 00:15:13;;;;;;;8.57;6.28;;;;;;;;;;5009578;28;20100;-77
2022/08/06 00:17:41;;;;;;;11.30;6.60;;;;;;;;;;5008825;28;20077;-77
2022/08/06 00:20:07;;;;;;;9.82;6.55;;;;;;;;;;5008579;28;20495;-77
2022/08/06 00:22:36;;;;;;;9.00;6.43;;;;;;;;;;4990446;28;20054;-76
2022/08/06 00:25:02;;;;;;;12.85;6.68;;;;;;;;;;5009143;28;20050;-77
2022/08/06 00:27:30;;;;;;;13.48;6.63;;;;;;;;;;4991655;28;20065;-76
2022/08/06 00:30:05;;;;;;;15.48;7.25;;;;;;;;;;5009339;28;20064;-76
2022/08/06 00:32:43;;;;;;;12.95;7.03;;;;;;;;;;5013998;28;20078;-77
2022/08/06 00:35:16;;;;;;;11.65;7.25;;;;;;;;;;5031214;28;20050;-77
2022/08/06 00:37:43;;;;;;;10.50;7.13;;;;;;;;;;5025046;28;20122;-77
2022/08/06 00:40:24;;;;;;;12.30;7.88;;;;;;;;;;5017111;28;20084;-76
2022/08/06 00:42:51;;;;;;;10.95;7.28;;;;;;;;;;5015923;28;20065;-77
2022/08/06 00:45:20;;;;;;;12.77;7.85;;;;;;;;;;5022041;28;20081;-77
2022/08/06 00:47:50;;;;;;;11.48;6.70;;;;;;;;;;5019347;28;20052;-77
2022/08/06 00:50:29;;;;;;;12.23;7.35;;;;;;;;;;5013989;28;20289;-77
2022/08/06 00:52:56;;;;;;;12.25;7.53;;;;;;;;;;5009571;28;20041;-76
2022/08/06 00:55:23;;;;;;;15.02;6.88;;;;;;;;;;5008171;28;20088;-76
2022/08/06 00:58:01;;;;;;;8.82;7.10;;;;;;;;;;5008846;28;20195;-77
2022/08/06 01:00:27;;;;;;;11.48;7.38;;;;;;;;;;5012175;28;20077;-76
2022/08/06 01:02:56;;;;;;;11.63;8.05;;;;;;;;;;5004926;28;20064;-76
2022/08/06 01:05:22;;;;;;;13.65;7.72;;;;;;;;;;5007702;28;20136;-76
2022/08/06 01:08:09;;;;;;;11.13;7.50;;;;;;;;;;5007932;28;20056;-76
2022/08/06 01:10:35;;;;;;;10.77;7.55;;;;;;;;;;5008256;28;20134;-77
2022/08/06 01:13:08;;;;;;;12.57;7.35;;;;;;;;;;5008549;28;20050;-77
2022/08/06 01:15:58;;;;;;;14.02;7.53;;;;;;;;;;5011474;28;20387;-77
2022/08/06 01:18:41;;;;;;;10.30;7.47;;;;;;;;;;5011806;28;20057;-77
2022/08/06 01:21:25;;;;;;;12.32;7.90;;;;;;;;;;5010695;28;20053;-77
2022/08/06 01:24:12;;;;;;;13.27;8.23;;;;;;;;;;5011094;28;20054;-76
2022/08/06 01:26:56;;;;;;;11.55;8.27;;;;;;;;;;5011552;28;20085;-77
2022/08/06 01:29:36;;;;;;;14.18;9.38;;;;;;;;;;5012298;28;20438;-77
2022/08/06 01:32:30;;;;;;;14.38;10.27;;;;;;;;;;5010138;28;20042;-76
2022/08/06 01:35:03;;;;;;;16.27;10.30;;;;;;;;;;5008317;28;20049;-77
2022/08/06 01:37:57;;;;;;;12.43;9.27;;;;;;;;;;5011500;28;20108;-77
2022/08/06 01:40:27;;;;;;;13.90;9.50;;;;;;;;;;5012197;28;20111;-77
2022/08/06 01:42:55;;;;;;;14.77;8.63;;;;;;;;;;5011572;28;20054;-77
2022/08/06 01:45:27;;;;;;;13.15;8.07;;;;;;;;;;5012951;28;20061;-76
2022/08/06 01:48:16;;;;;;;9.13;6.50;;;;;;;;;;5011887;28;20077;-77
2022/08/06 01:50:45;;;;;;;10.45;5.90;;;;;;;;;;5007547;28;20058;-76
2022/08/06 01:53:14;;;;;;;8.23;4.25;;;;;;;;;;5011021;28;20104;-77
2022/08/06 01:55:43;;;;;;;8.82;3.35;;;;;;;;;;5012162;28;20046;-76
2022/08/06 01:58:27;;;;;;;7.65;3.17;;;;;;;;;;5011371;28;20141;-77
2022/08/06 02:00:57;;;;;;;4.22;2.85;;;;;;;;;;5011695;28;20439;-77
2022/08/06 02:03:40;;;;;;;4.70;2.60;;;;;;;;;;5011133;28;20046;-77
2022/08/06 02:06:32;;;;;;;8.88;3.20;;;;;;;;;;5010181;28;20053;-76
2022/08/06 02:09:01;;;;;;;8.07;2.88;;;;;;;;;;5010555;28;20105;-76
2022/08/06 02:11:56;;;;;;;8.57;2.55;;;;;;;;;;5009970;28;20498;-77
2022/08/06 02:14:33;;;;;;;12.90;2.72;;;;;;;;;;5011524;28;20137;-77
2022/08/06 02:17:02;;;;;;;5.65;2.20;;;;;;;;;;5010812;28;20050;-77
2022/08/06 02:19:42;;;;;;;7.50;2.75;;;;;;;;;;5010540;28;20081;-77
2022/08/06 02:22:31;;;;;;;8.70;2.72;;;;;;;;;;5009215;28;20061;-77
2022/08/06 02:25:01;;;;;;;4.45;2.60;;;;;;;;;;5010448;28;20482;-77
2022/08/06 02:27:32;;;;;;;4.50;2.53;;;;;;;;;;4993242;28;20507;-77
2022/08/06 02:30:10;;;;;;;4.55;2.63;;;;;;;;;;5011304;28;20100;-77
2022/08/06 02:32:37;;;;;;;6.00;2.63;;;;;;;;;;5010069;28;20104;-77
2022/08/06 02:35:08;;;;;;;5.80;2.30;;;;;;;;;;5022960;28;20046;-77
2022/08/06 02:37:37;;;;;;;5.82;2.33;;;;;;;;;;5037218;28;20030;-77
2022/08/06 02:40:26;;;;;;;8.40;2.33;;;;;;;;;;5025400;28;20057;-77
2022/08/06 02:43:01;;;;;;;3.63;2.58;;;;;;;;;;5010469;28;20045;-77
2022/08/06 02:45:35;;;;;;;3.30;2.30;;;;;;;;;;5011552;28;20077;-77
2022/08/06 02:48:14;;;;;;;5.88;2.50;;;;;;;;;;5010636;28;20128;-77
2022/08/06 02:50:59;;;;;;;6.22;3.33;;;;;;;;;;5007828;28;20514;-77
2022/08/06 02:53:30;;;;;;;7.10;2.97;;;;;;;;;;5010679;28;20038;-77
2022/08/06 02:56:17;;;;;;;7.03;2.70;;;;;;;;;;5010733;28;20064;-78
2022/08/06 02:58:46;;;;;;;8.65;2.92;;;;;;;;;;5010562;28;20053;-77
2022/08/06 03:01:29;;;;;;;4.75;2.50;;;;;;;;;;5010548;28;20115;-77
2022/08/06 03:04:09;;;;;;;4.65;2.13;;;;;;;;;;5009658;28;20081;-78
2022/08/06 03:06:37;;;;;;;6.82;2.47;;;;;;;;;;5010625;28;20049;-77
2022/08/06 03:09:05;;;;;;;5.88;2.25;;;;;;;;;;5009777;28;20092;-77
2022/08/06 03:11:33;;;;;;;6.95;2.28;;;;;;;;;;5010541;28;20042;-76
2022/08/06 03:14:03;;;;;;;6.43;2.38;;;;;;;;;;5010738;28;20054;-77
2022/08/06 03:16:50;;;;;;;4.88;2.42;;;;;;;;;;5010814;28;20085;-77
2022/08/06 03:19:17;;;;;;;4.60;2.20;;;;;;;;;;5009702;28;20103;-77
2022/08/06 03:22:07;;;;;;;4.68;2.22;;;;;;;;;;5009986;28;20056;-77
2022/08/06 03:24:44;;;;;;;6.28;2.50;;;;;;;;;;5009896;28;20743;-77
2022/08/06 03:27:14;;;;;;;5.78;2.30;;;;;;;;;;5011457;28;20050;-77
2022/08/06 03:29:46;;;;;;;8.25;2.40;;;;;;;;;;5010553;28;20104;-77
2022/08/06 03:32:24;;;;;;;3.90;2.20;;;;;;;;;;5008383;28;20511;-76
2022/08/06 03:35:11;;;;;;;2.80;2.10;;;;;;;;;;5011207;28;20048;-78
2022/08/06 03:37:57;;;;;;;6.90;1.95;;;;;;;;;;5010152;28;20048;-77
2022/08/06 03:40:29;;;;;;;3.67;1.73;;;;;;;;;;5009875;28;20449;-77
2022/08/06 03:42:58;;;;;;;2.20;1.50;;;;;;;;;;5008906;28;20161;-77
2022/08/06 03:45:30;;;;;;;3.70;1.80;;;;;;;;;;5010870;28;20050;-77
2022/08/06 03:48:12;;;;;;;5.53;1.85;;;;;;;;;;5010052;28;20049;-78
2022/08/06 03:51:01;;;;;;;4.38;1.60;;;;;;;;;;5007160;28;20408;-76
2022/08/06 03:53:35;;;;;;;5.72;1.80;;;;;;;;;;5008517;28;20388;-77
2022/08/06 03:56:06;;;;;;;3.92;1.80;;;;;;;;;;5009193;28;20458;-78
2022/08/06 03:58:40;;;;;;;6.40;1.90;;;;;;;;;;5009614;28;20598;-76
2022/08/06 04:01:09;;;;;;;2.22;1.80;;;;;;;;;;5008374;28;20133;-77
2022/08/06 04:03:37;;;;;;;6.20;1.77;;;;;;;;;;5009017;28;20052;-77
2022/08/06 04:06:09;;;;;;;4.75;1.90;;;;;;;;;;5009206;28;20049;-77
2022/08/06 04:08:42;;;;;;;5.45;2.00;;;;;;;;;;5009015;28;20054;-78
2022/08/06 04:11:10;;;;;;;4.45;1.65;;;;;;;;;;5007217;28;20081;-77
2022/08/06 04:13:57;;;;;;;5.20;1.90;;;;;;;;;;5008262;28;20168;-77
2022/08/06 04:16:34;;;;;;;4.05;1.70;;;;;;;;;;5009582;28;20454;-77
2022/08/06 04:19:04;;;;;;;3.45;1.40;;;;;;;;;;5009167;28;20058;-77
2022/08/06 04:21:34;;;;;;;6.05;1.40;;;;;;;;;;5008740;28;20491;-78
2022/08/06 04:24:21;;;;;;;3.95;1.23;;;;;;;;;;5009005;28;20537;-78
2022/08/06 04:26:58;;;;;;;3.20;1.27;;;;;;;;;;5010199;28;20109;-77
2022/08/06 04:29:25;;;;;;;3.80;1.20;;;;;;;;;;5008837;28;21717;-77
2022/08/06 04:32:13;;;;;;;3.00;1.35;;;;;;;;;;5009354;28;20472;-77
2022/08/06 04:34:46;;;;;;;5.22;1.30;;;;;;;;;;5008413;28;20058;-77
2022/08/06 04:37:34;;;;;;;4.10;1.40;;;;;;;;;;5008980;28;20510;-77
2022/08/06 04:40:07;;;;;;;4.70;1.50;;;;;;;;;;5009086;28;20125;-78
2022/08/06 04:42:40;;;;;;;4.20;1.20;;;;;;;;;;5008365;28;20127;-77
2022/08/06 04:45:08;;;;;;;3.38;1.25;;;;;;;;;;5010125;28;20054;-78
2022/08/06 04:47:55;;;;;;;6.28;1.00;;;;;;;;;;5009083;28;20288;-75
2022/08/06 04:50:23;;;;;;;4.43;1.02;;;;;;;;;;5007194;28;20056;-75
2022/08/06 04:52:49;;;;;;;2.28;1.05;;;;;;;;;;5011668;28;20220;-78
2022/08/06 04:55:19;;;;;;;4.60;1.30;;;;;;;;;;5012623;28;20438;-76
2022/08/06 04:57:50;;;;;;;4.18;1.20;;;;;;;;;;5013845;28;20076;-77
2022/08/06 05:00:29;;;;;;;4.20;1.13;;;;;;;;;;5013869;28;20495;-77
2022/08/06 05:03:16;;;;;;;1.70;1.10;;;;;;;;;;5012990;28;20522;-77
2022/08/06 05:06:22;;;;;;;2.92;0.95;;;;;;;;;;5012880;28;20054;-78
2022/08/06 05:08:53;;;;;;;3.83;1.02;;;;;;;;;;5012420;28;20053;-78
2022/08/06 05:11:23;;;;;;;3.38;1.10;;;;;;;;;;5011815;28;20092;-77
2022/08/06 05:13:53;;;;;;;5.97;1.10;;;;;;;;;;5012751;28;20062;-78
2022/08/06 05:16:20;;;;;;;3.83;1.13;;;;;;;;;;5012904;28;20137;-78
2022/08/06 05:18:52;;;;;;;3.63;0.93;;;;;;;;;;5012603;28;20053;-78
2022/08/06 05:21:39;;;;;;;2.95;1.17;;;;;;;;;;5011677;28;20501;-76
2022/08/06 05:24:26;;;;;;;4.30;1.10;;;;;;;;;;5010215;28;20046;-76
2022/08/06 05:27:13;;;;;;;4.47;1.10;;;;;;;;;;5012103;28;20058;-76
2022/08/06 05:29:41;;;;;;;4.65;1.15;;;;;;;;;;5010995;28;20141;-77
2022/08/06 05:32:17;;;;;;;2.22;0.90;;;;;;;;;;5011322;28;20140;-75
2022/08/06 05:34:50;;;;;;;5.13;1.02;;;;;;;;;;5011644;28;20100;-75
2022/08/06 05:37:18;;;;;;;3.30;1.05;;;;;;;;;;5010851;28;20120;-77
2022/08/06 05:39:51;;;;;;;1.08;0.80;;;;;;;;;;5012191;28;20209;-75
2022/08/06 05:42:24;;;;;;;4.22;1.10;;;;;;;;;;5011248;28;20656;-78
2022/08/06 05:44:52;;;;;;;7.25;1.02;;;;;;;;;;5011103;28;20049;-78
2022/08/06 05:47:20;;;;;;;6.47;1.30;;;;;;;;;;5011497;28;20054;-78
2022/08/06 05:49:49;;;;;;;5.18;1.10;;;;;;;;;;5016166;28;20565;-77
2022/08/06 05:52:26;;;;;;;4.50;0.98;;;;;;;;;;5034733;28;20041;-77
2022/08/06 05:55:14;;;;;;;2.25;0.90;;;;;;;;;;5018558;28;20098;-77
2022/08/06 05:57:45;;;;;;;3.88;1.00;;;;;;;;;;4993922;28;20137;-78
2022/08/06 06:00:22;;;;;;;3.55;0.80;;;;;;;;;;4994265;28;20109;-77
2022/08/06 06:03:11;;;;;;;5.28;1.45;;;;;;;;;;4991785;28;20050;-78
2022/08/06 06:05:54;;;;;;;5.38;0.90;;;;;;;;;;4996960;28;20058;-78
2022/08/06 06:08:36;;;;;;;4.30;0.93;;;;;;;;;;4992681;28;20046;-78
2022/08/06 06:11:23;;;;;;;5.07;1.10;;;;;;;;;;4991551;28;20080;-77
2022/08/06 06:14:29;;;;;;;3.33;1.00;;;;;;;;;;4993768;28;20054;-78
2022/08/06 06:17:19;;;;;;;2.83;1.00;;;;;;;;;;4999483;28;20054;-76
2022/08/06 06:20:01;;;;;;;3.95;1.00;;;;;;;;;;4993326;28;20077;-77
2022/08/06 06:22:44;;;;;;;3.10;1.02;;;;;;;;;;4992313;28;20082;-78
2022/08/06 06:25:31;;;;;;;3.83;1.00;;;;;;;;;;4991936;28;20050;-77
2022/08/06 06:28:05;;;;;;;3.97;1.02;;;;;;;;;;4991247;28;20161;-77
2022/08/06 06:30:41;;;;;;;5.28;1.05;;;;;;;;;;4991035;28;20047;-77
2022/08/06 06:33:48;;;;;;;1.88;0.93;;;;;;;;;;4976056;28;20046;-77
2022/08/06 06:36:23;;;;;;;5.75;1.10;;;;;;;;;;4975075;28;20482;-77
2022/08/06 06:38:53;;;;;;;2.90;0.95;;;;;;;;;;4990864;28;20046;-77
2022/08/06 06:41:29;;;;;;;4.38;0.93;;;;;;;;;;4990259;28;20093;-77
2022/08/06 06:44:12;;;;;;;4.47;1.05;;;;;;;;;;4990723;28;20076;-77
2022/08/06 06:46:51;;;;;;;2.17;0.70;;;;;;;;;;4991768;28;20491;-77
2022/08/06 06:49:39;;;;;;;3.83;0.90;;;;;;;;;;4990775;28;20157;-78
2022/08/06 06:52:27;;;;;;;3.88;1.05;;;;;;;;;;4989014;28;20400;-76
2022/08/06 06:55:04;;;;;;;7.25;1.00;;;;;;;;;;5006133;28;20077;-78
2022/08/06 06:57:46;;;;;;;3.85;1.10;;;;;;;;;;4994688;28;20399;-78
2022/08/06 07:00:17;;;;;;;4.72;0.95;;;;;;;;;;4993932;28;20076;-78
2022/08/06 07:03:03;;;;;;;5.03;1.10;;;;;;;;;;4995319;28;20401;-76
2022/08/06 07:05:36;;;;;;;6.30;1.00;;;;;;;;;;5010186;28;20056;-76
2022/08/06 07:08:23;;;;;;;2.17;0.70;;;;;;;;;;5009424;28;20072;-78
2022/08/06 07:11:04;;;;;;;2.53;0.60;;;;;;;;;;5009802;28;20049;-78
2022/08/06 07:13:31;;;;;;;1.35;0.63;;;;;;;;;;5010574;28;20119;-78
2022/08/06 07:16:18;;;;;;;2.80;0.73;;;;;;;;;;5011089;28;20105;-78
2022/08/06 07:19:02;;;;;;;7.22;0.80;;;;;;;;;;5012588;28;20042;-78
2022/08/06 07:21:30;;;;;;;2.92;0.80;;;;;;;;;;5010451;28;20054;-77
2022/08/06 07:23:56;;;;;;;3.08;0.82;;;;;;;;;;4992809;28;20136;-78
2022/08/06 07:26:43;;;;;;;5.35;0.77;;;;;;;;;;5009651;28;20050;-78
2022/08/06 07:29:16;;;;;;;2.28;0.70;;;;;;;;;;5010181;28;20557;-78
2022/08/06 07:32:03;;;;;;;3.92;0.60;;;;;;;;;;5009739;28;20049;-78
2022/08/06 07:34:32;;;;;;;5.85;0.60;;;;;;;;;;5009436;28;20065;-77
2022/08/06 07:37:00;;;;;;;5.07;0.60;;;;;;;;;;5009647;28;20073;-77
2022/08/06 07:39:39;;;;;;;6.60;0.60;;;;;;;;;;5009136;28;20507;-77
2022/08/06 07:42:06;;;;;;;2.45;0.60;;;;;;;;;;5008893;28;20059;-78
2022/08/06 07:44:38;;;;;;;4.07;0.80;;;;;;;;;;5011111;28;20121;-78
2022/08/06 07:47:24;;;;;;;5.35;0.60;;;;;;;;;;5010088;28;20582;-78
2022/08/06 07:50:11;;;;;;;8.63;0.80;;;;;;;;;;5009767;28;20104;-78
2022/08/06 07:52:42;;;;;;;7.50;0.60;;;;;;;;;;4991912;28;20050;-78
2022/08/06 07:55:10;;;;;;;4.25;0.50;;;;;;;;;;5011197;28;20053;-78
2022/08/06 07:57:38;;;;;;;3.47;0.60;;;;;;;;;;5010568;28;20042;-78
2022/08/06 08:00:25;;;;;;;6.68;0.65;;;;;;;;;;5010107;28;20669;-78
2022/08/06 08:06:18;;;;;;;5.97;0.60;;;;;;;;;;5010317;28;20064;-77
2022/08/06 08:08:58;;;;;;;3.25;0.63;;;;;;;;;;5009453;28;20056;-78
2022/08/06 08:11:26;;;;;;;2.30;0.50;;;;;;;;;;5009187;28;20060;-77
2022/08/06 08:14:13;;;;;;;3.83;0.60;;;;;;;;;;5009873;28;20132;-78
2022/08/06 08:16:41;;;;;;;3.55;0.60;;;;;;;;;;5009642;28;20049;-77
2022/08/06 08:19:32;;;;;;;3.47;0.80;;;;;;;;;;5007557;28;20145;-77
2022/08/06 08:22:10;;;;;;;1.75;0.45;;;;;;;;;;5008948;28;20050;-77
2022/08/06 08:24:39;;;;;;;1.65;0.50;;;;;;;;;;5008753;28;20525;-77
2022/08/06 08:27:10;;;;;;;1.40;0.38;;;;;;;;;;5009030;28;20052;-77
2022/08/06 08:29:47;;;;;;;1.75;0.40;;;;;;;;;;5010030;28;20050;-78
2022/08/06 08:32:22;;;;;;;4.40;0.50;;;;;;;;;;5008898;28;20107;-77
2022/08/06 08:34:49;;;;;;;1.92;0.38;;;;;;;;;;5008661;28;20076;-77
2022/08/06 08:37:18;;;;;;;1.05;0.47;;;;;;;;;;5009566;28;20068;-77
2022/08/06 08:39:46;;;;;;;2.78;0.50;;;;;;;;;;5011595;28;20050;-77
2022/08/06 08:42:27;;;;;;;4.35;0.57;;;;;;;;;;5008358;28;20094;-77
2022/08/06 08:44:58;;;;;;;3.05;0.57;;;;;;;;;;5009651;28;20049;-77
2022/08/06 08:47:24;;;;;;;1.92;0.98;;;;;;;;;;5008192;28;20567;-77
2022/08/06 08:50:11;;;;;;;2.72;0.52;;;;;;;;;;5008187;28;20056;-77
2022/08/06 08:52:39;;;;;;;3.15;0.63;;;;;;;;;;5005201;28;20086;-78
2022/08/06 08:55:09;;;;;;;0.93;0.40;;;;;;;;;;5008914;28;20073;-77
2022/08/06 08:57:56;;;;;;;1.88;0.40;;;;;;;;;;5009361;28;20137;-77
2022/08/06 09:00:42;;;;;;;6.57;0.52;;;;;;;;;;5008487;28;20454;-77
2022/08/06 09:03:18;;;;;;;4.55;0.47;;;;;;;;;;5007853;28;20060;-77
2022/08/06 09:05:45;;;;;;;6.03;0.60;;;;;;;;;;5008606;28;20146;-77
2022/08/06 09:08:13;;;;;;;2.42;0.60;;;;;;;;;;5008213;28;20050;-78
2022/08/06 09:10:59;;;;;;;2.75;0.40;;;;;;;;;;5029142;28;20102;-77
2022/08/06 09:13:32;;;;;;;3.40;0.45;;;;;;;;;;5034753;28;20093;-77
2022/08/06 09:16:17;;;;;;;3.60;0.57;;;;;;;;;;5017588;28;20077;-78
2022/08/06 09:18:56;;;;;;;1.10;0.50;;;;;;;;;;5010462;28;20410;-77
2022/08/06 09:21:24;;;;;;;2.75;0.60;;;;;;;;;;5009023;28;20652;-78
2022/08/06 09:23:54;;;;;;;3.63;0.63;;;;;;;;;;5009166;28;20101;-77
2022/08/06 09:26:24;;;;;;;0.68;0.40;;;;;;;;;;5009171;28;20046;-77
2022/08/06 09:29:19;;;;;;;1.17;0.40;;;;;;;;;;5009667;28;20505;-78
2022/08/06 09:31:57;;;;;;;2.17;0.40;;;;;;;;;;5008038;28;20060;-76
2022/08/06 09:34:32;;;;;;;2.72;0.50;;;;;;;;;;5007281;28;20050;-76
2022/08/06 09:37:07;;;;;;;2.88;0.55;;;;;;;;;;5011688;28;20052;-76
2022/08/06 09:39:40;;;;;;;3.55;0.47;;;;;;;;;;5011206;28;20050;-78
2022/08/06 09:42:37;;;;;;;2.17;0.43;;;;;;;;;;5009895;28;20056;-78
2022/08/06 09:45:08;;;;;;;2.88;0.40;;;;;;;;;;5013225;28;20461;-77
2022/08/06 09:47:42;;;;;;;2.47;0.50;;;;;;;;;;5013489;28;20057;-78
2022/08/06 09:50:13;;;;;;;0.77;0.40;;;;;;;;;;5009178;28;20072;-78
2022/08/06 09:53:00;;;;;;;3.60;0.40;;;;;;;;;;5010852;28;20054;-77
2022/08/06 09:55:30;;;;;;;3.13;0.40;;;;;;;;;;5012079;28;20042;-78
2022/08/06 09:58:06;;;;;;;2.03;0.30;;;;;;;;;;5012834;28;20050;-78
2022/08/06 10:00:36;;;;;;;2.40;0.50;;;;;;;;;;5012220;28;20050;-78
2022/08/06 10:03:07;;;;;;;0.98;0.30;;;;;;;;;;5012078;28;20042;-77
2022/08/06 10:06:13;;;;;;;2.90;0.45;;;;;;;;;;5012673;28;20058;-78
2022/08/06 10:08:41;;;;;;;3.70;0.70;;;;;;;;;;5013644;28;20097;-78
2022/08/06 10:11:07;;;;;;;1.92;0.38;;;;;;;;;;5013055;28;20073;-78
2022/08/06 10:13:34;;;;;;;2.60;0.50;;;;;;;;;;5014316;28;20070;-78
2022/08/06 10:16:26;;;;;;;3.40;0.50;;;;;;;;;;5012486;28;20050;-78
2022/08/06 10:18:55;;;;;;;2.13;0.38;;;;;;;;;;5011300;28;20057;-78
2022/08/06 10:21:28;;;;;;;1.65;0.43;;;;;;;;;;5010964;28;20056;-77
2022/08/06 10:24:06;;;;;;;4.78;0.50;;;;;;;;;;5011141;28;20057;-78
2022/08/06 10:26:33;;;;;;;4.57;0.60;;;;;;;;;;5010411;28;20052;-77
2022/08/06 10:29:03;;;;;;;1.52;0.28;;;;;;;;;;5009985;28;20051;-77
2022/08/06 10:31:30;;;;;;;1.48;0.40;;;;;;;;;;5012219;28;20112;-77
2022/08/06 10:33:59;;;;;;;2.17;0.50;;;;;;;;;;5011475;28;20053;-77
2022/08/06 10:36:36;;;;;;;0.70;0.40;;;;;;;;;;5010252;28;20599;-77
2022/08/06 10:39:03;;;;;;;1.73;0.50;;;;;;;;;;5011303;28;20076;-77
2022/08/06 10:41:50;;;;;;;2.20;0.50;;;;;;;;;;5011041;28;20045;-77
2022/08/06 10:44:28;;;;;;;2.63;0.50;;;;;;;;;;5011528;28;20053;-76
2022/08/06 10:47:04;;;;;;;2.60;0.70;;;;;;;;;;5009150;28;20050;-76
2022/08/06 10:49:31;;;;;;;1.88;0.40;;;;;;;;;;5011486;28;20049;-78
2022/08/06 10:52:18;;;;;;;1.60;0.57;;;;;;;;;;5008371;28;20068;-76
2022/08/06 10:54:50;;;;;;;2.08;0.65;;;;;;;;;;5010570;28;20046;-78
2022/08/06 10:57:17;;;;;;;1.88;0.50;;;;;;;;;;5010062;28;20092;-78
2022/08/06 11:00:03;;;;;;;2.67;0.40;;;;;;;;;;5009626;28;20549;-78
2022/08/06 11:02:35;;;;;;;3.63;0.52;;;;;;;;;;5009401;28;20442;-78
2022/08/06 11:05:04;;;;;;;2.10;0.57;;;;;;;;;;5010580;28;20062;-78
2022/08/06 11:08:09;;;;;;;2.78;0.40;;;;;;;;;;5009952;28;20056;-77
2022/08/06 11:11:07;;;;;;;0.88;0.40;;;;;;;;;;5009869;28;20540;-76
2022/08/06 11:13:50;;;;;;;3.65;0.50;;;;;;;;;;5010510;28;20050;-78
2022/08/06 11:16:26;;;;;;;4.05;0.47;;;;;;;;;;5010882;28;20069;-78
2022/08/06 11:18:59;;;;;;;1.90;0.43;;;;;;;;;;5010211;28;20441;-78
2022/08/06 11:21:46;;;;;;;4.80;0.60;;;;;;;;;;5009376;28;20404;-78
2022/08/06 11:24:28;;;;;;;;;;;;;;;;;;5011971;28;20156;-78
2022/08/06 11:26:55;;;;;;;1.77;0.60;;;;;;;;;;5012051;28;19975;-79
2022/08/06 11:29:56;;;;;;;3.08;0.50;;;;;;;;;;5011985;28;20054;-78
2022/08/06 11:32:43;;;;;;;1.55;0.68;;;;;;;;;;5008794;28;20108;-77
2022/08/06 11:35:38;;;;;;;2.95;0.60;;;;;;;;;;5009812;28;20133;-78
2022/08/06 11:38:35;;;;;;;2.80;0.60;;;;;;;;;;5009600;28;20045;-78
2022/08/06 11:41:06;;;;;;;5.50;0.65;;;;;;;;;;5011670;28;20137;-78
2022/08/06 11:43:37;;;;;;;1.50;0.50;;;;;;;;;;5014028;28;20050;-78
2022/08/06 11:46:26;;;;;;;1.17;0.40;;;;;;;;;;5024354;28;20117;-78
2022/08/06 11:49:03;;;;;;;2.95;0.55;;;;;;;;;;5016369;28;20077;-77
2022/08/06 11:51:50;;;;;;;2.25;0.60;;;;;;;;;;5013392;28;20054;-78
2022/08/06 11:54:30;;;;;;;2.38;0.52;;;;;;;;;;5015448;28;20133;-77
2022/08/06 11:57:00;;;;;;;1.35;0.50;;;;;;;;;;5011738;28;20081;-78
2022/08/06 11:59:33;;;;;;;1.70;0.60;;;;;;;;;;5010410;28;20134;-78
2022/08/06 12:02:07;;;;;;;1.48;0.47;;;;;;;;;;5010150;28;20053;-78
2022/08/06 12:04:47;;;;;;;1.13;0.43;;;;;;;;;;5010014;28;20049;-77
2022/08/06 12:07:15;;;;;;;1.52;0.50;;;;;;;;;;5015284;28;20136;-79
2022/08/06 12:09:42;;;;;;;1.40;0.47;;;;;;;;;;5025062;28;20033;-80
2022/08/06 12:12:24;;;;;;;2.35;0.60;;;;;;;;;;5034463;28;20034;-80
2022/08/06 12:14:52;;;;;;;2.15;0.60;;;;;;;;;;4996968;28;20042;-79
2022/08/06 12:17:24;;;;;;;1.38;0.55;;;;;;;;;;5012170;28;20096;-78
2022/08/06 12:20:10;;;;;;;3.88;0.50;;;;;;;;;;5011654;28;20633;-78
2022/08/06 12:22:57;;;;;;;1.15;0.40;;;;;;;;;;5013853;28;20133;-79
2022/08/06 12:25:31;;;;;;;1.35;0.60;;;;;;;;;;5016323;28;20109;-78
2022/08/06 12:28:01;;;;;;;1.90;0.70;;;;;;;;;;5025990;28;20046;-79
2022/08/06 12:30:51;;;;;;;0.68;0.50;;;;;;;;;;5034584;28;20030;-79
2022/08/06 12:33:19;;;;;;;3.45;0.52;;;;;;;;;;5033773;28;20284;-78
2022/08/06 12:35:51;;;;;;;1.63;0.68;;;;;;;;;;5012607;28;20042;-78
2022/08/06 12:38:18;;;;;;;0.88;0.43;;;;;;;;;;5009463;28;20089;-78
2022/08/06 12:40:57;;;;;;;2.20;0.50;;;;;;;;;;5009628;28;20543;-77
2022/08/06 12:43:25;;;;;;;1.10;0.45;;;;;;;;;;5009896;28;20141;-78
2022/08/06 12:46:11;;;;;;;2.30;0.50;;;;;;;;;;5010800;28;20050;-78
2022/08/06 12:48:50;;;;;;;1.17;0.50;;;;;;;;;;5010986;28;20053;-79
2022/08/06 12:51:16;;;;;;;1.67;0.47;;;;;;;;;;5008707;28;20054;-79
2022/08/06 12:53:47;;;;;;;1.65;0.50;;;;;;;;;;5013200;28;20145;-79
2022/08/06 12:56:14;;;;;;;7.45;0.77;;;;;;;;;;5014274;28;20124;-78
2022/08/06 12:58:57;;;;;;;2.00;0.70;;;;;;;;;;5014749;28;20049;-79
2022/08/06 13:01:26;;;;;;;1.83;0.45;;;;;;;;;;5014709;28;20062;-79
2022/08/06 13:04:12;;;;;;;1.90;0.60;;;;;;;;;;5014769;28;20113;-79
2022/08/06 13:06:42;;;;;;;5.80;0.55;;;;;;;;;;5014600;28;20054;-79
2022/08/06 13:09:12;;;;;;;7.25;0.60;;;;;;;;;;5013825;28;20071;-78
2022/08/06 13:11:41;;;;;;;1.45;0.40;;;;;;;;;;5015424;28;20049;-78
2022/08/06 13:14:16;;;;;;;;;;;;;;;;;;5018700;28;20050;-78
2022/08/06 13:16:45;;;;;;;2.60;0.50;;;;;;;;;;5020437;28;19980;-79
2022/08/06 13:19:21;;;;;;;1.00;0.40;;;;;;;;;;5017356;28;20085;-79
2022/08/06 13:22:05;;;;;;;5.43;0.55;;;;;;;;;;5017683;28;20096;-78
2022/08/06 13:24:32;;;;;;;4.18;0.60;;;;;;;;;;5017726;28;20112;-78
2022/08/06 13:27:01;;;;;;;1.10;0.40;;;;;;;;;;5019235;28;20057;-79
2022/08/06 13:29:31;;;;;;;3.65;0.63;;;;;;;;;;5023496;28;20072;-79
2022/08/06 13:32:17;;;;;;;1.33;0.50;;;;;;;;;;5024271;28;20088;-77
2022/08/06 13:35:02;;;;;;;1.33;0.47;;;;;;;;;;5024002;28;20056;-78
2022/08/06 13:37:49;;;;;;;1.67;0.50;;;;;;;;;;5020664;28;20049;-79
2022/08/06 13:40:44;;;;;;;2.50;0.57;;;;;;;;;;5019823;28;20046;-80
2022/08/06 13:43:17;;;;;;;2.55;0.63;;;;;;;;;;5021787;28;20049;-79
2022/08/06 13:46:05;;;;;;;1.77;0.40;;;;;;;;;;5025040;28;20410;-79
2022/08/06 13:48:35;;;;;;;2.60;0.50;;;;;;;;;;5024638;28;20064;-79
2022/08/06 13:51:03;;;;;;;1.52;0.50;;;;;;;;;;5023577;28;20053;-78
2022/08/06 13:53:47;;;;;;;1.75;0.47;;;;;;;;;;5023208;28;20046;-79
2022/08/06 13:56:15;;;;;;;2.63;0.70;;;;;;;;;;5022963;28;20049;-79
2022/08/06 13:58:53;;;;;;;2.55;0.50;;;;;;;;;;5026119;28;20118;-79
2022/08/06 14:01:22;;;;;;;0.75;0.50;;;;;;;;;;5025695;28;20080;-80
2022/08/06 14:03:48;;;;;;;0.77;0.40;;;;;;;;;;5025756;28;20045;-79
2022/08/06 14:06:15;;;;;;;3.45;0.60;;;;;;;;;;5025327;28;20057;-79
2022/08/06 14:08:43;;;;;;;6.07;0.70;;;;;;;;;;5025454;28;20053;-79
2022/08/06 14:11:13;;;;;;;1.30;0.60;;;;;;;;;;5023046;28;20050;-78
2022/08/06 14:13:41;;;;;;;1.40;0.60;;;;;;;;;;5022756;28;20049;-79
2022/08/06 14:16:07;;;;;;;2.42;0.50;;;;;;;;;;5025661;28;20046;-79
2022/08/06 14:18:34;;;;;;;4.85;0.60;;;;;;;;;;5019756;28;20073;-78
2022/08/06 14:21:05;;;;;;;4.28;0.68;;;;;;;;;;5015631;28;20498;-79
2022/08/06 14:23:32;;;;;;;2.22;0.60;;;;;;;;;;5024103;28;20136;-79
2022/08/06 14:26:18;;;;;;;3.70;0.50;;;;;;;;;;5025192;28;20057;-79
2022/08/06 14:28:52;;;;;;;2.07;0.70;;;;;;;;;;5024595;28;20181;-78
2022/08/06 14:31:39;;;;;;;2.38;0.70;;;;;;;;;;5024776;28;20049;-80
2022/08/06 14:34:22;;;;;;;1.52;0.50;;;;;;;;;;5025767;28;20096;-79
2022/08/06 14:37:02;;;;;;;3.25;0.60;;;;;;;;;;5024514;28;20120;-79
2022/08/06 14:39:39;;;;;;;5.60;0.65;;;;;;;;;;5022971;28;20053;-79
2022/08/06 14:45:12;;;;;;;2.58;0.70;;;;;;;;;;5022779;28;20092;-78
2022/08/06 14:47:40;;;;;;;1.90;0.50;;;;;;;;;;5021491;28;20066;-79
2022/08/06 14:50:26;;;;;;;2.25;0.50;;;;;;;;;;5019672;28;20050;-78
2022/08/06 14:53:06;;;;;;;2.60;0.77;;;;;;;;;;5017473;28;20052;-79
2022/08/06 14:55:32;;;;;;;1.23;0.52;;;;;;;;;;5018504;28;20133;-78
2022/08/06 14:57:59;;;;;;;1.58;0.50;;;;;;;;;;5021328;28;20051;-79
2022/08/06 15:00:34;;;;;;;4.70;0.50;;;;;;;;;;5022400;28;20117;-79
2022/08/06 15:03:04;;;;;;;1.67;0.63;;;;;;;;;;5018940;28;20049;-79
2022/08/06 15:05:38;;;;;;;3.40;0.55;;;;;;;;;;5013834;28;20566;-79
2022/08/06 15:08:24;;;;;;;1.67;0.47;;;;;;;;;;5011155;28;20057;-77
2022/08/06 15:10:51;;;;;;;2.03;0.50;;;;;;;;;;5008962;28;20103;-77
2022/08/06 15:13:17;;;;;;;1.45;0.40;;;;;;;;;;5010709;28;20133;-77
2022/08/06 15:15:45;;;;;;;1.73;0.57;;;;;;;;;;5011069;28;20074;-77
2022/08/06 15:18:16;;;;;;;1.25;0.43;;;;;;;;;;5010976;28;20519;-79
2022/08/06 15:21:05;;;;;;;3.67;0.40;;;;;;;;;;5010616;28;20533;-78
2022/08/06 15:23:41;;;;;;;3.13;0.40;;;;;;;;;;5009832;28;20056;-78
2022/08/06 15:26:20;;;;;;;1.30;0.50;;;;;;;;;;5010360;28;20493;-78
2022/08/06 15:29:07;;;;;;;0.82;0.40;;;;;;;;;;5010584;28;20054;-77
2022/08/06 15:31:36;;;;;;;2.03;0.43;;;;;;;;;;5009484;28;20077;-75
2022/08/06 15:34:05;;;;;;;2.22;0.30;;;;;;;;;;5008517;28;20053;-75
2022/08/06 15:36:33;;;;;;;1.45;0.50;;;;;;;;;;5009362;28;20106;-76
2022/08/06 15:39:01;;;;;;;2.30;0.50;;;;;;;;;;5009542;28;20236;-76
2022/08/06 15:41:35;;;;;;;0.82;0.40;;;;;;;;;;5008918;28;20486;-75